sensor_id;sensor_type;location;lat;lon;timestamp;P1;durP1;ratioP1;P2;durP2;ratioP2
1460;SDS011;724;49.910;12.530;2023-03-17T00:00:44;14.10;;;13.40;;
1460;SDS011;724;49.910;12.530;2023-03-17T00:03:15;13.95;;;13.25;;
1460;SDS011;724;49.910;12.530;2023-03-17T00:05:46;14.25;;;13.55;;
1460;SDS011;724;49.910;12.530;2023-03-17T00:08:14;14.10;;;13.40;;
1460;SDS011;724;49.910;12.530;2023-03-17T00:10:47;14.40;;;13.70;;
1460;SDS011;724;49.910;12.530;2023-03-17T00:13:14;14.35;;;13.65;;
1460;SDS011;724;49.910;12.530;2023-03-17T00:15:41;14.00;;;13.30;;
1460;SDS011;724;49.910;12.530;2023-03-17T00:18:09;14.35;;;13.65;;
1460;SDS011;724;49.910;12.530;2023-03-17T00:20:38;14.10;;;13.40;;
1460;SDS011;724;49.910;12.530;2023-03-17T00:23:07;14.10;;;13.40;;
1460;SDS011;724;49.910;12.530;2023-03-17T00:25:41;13.80;;;13.10;;
1460;SDS011;724;49.910;12.530;2023-03-17T00:28:14;14.10;;;13.40;;
1460;SDS011;724;49.910;12.530;2023-03-17T00:30:42;13.30;;;12.60;;
1460;SDS011;724;49.910;12.530;2023-03-17T00:33:10;13.60;;;12.90;;
1460;SDS011;724;49.910;12.530;2023-03-17T00:35:37;13.82;;;13.13;;
1460;SDS011;724;49.910;12.530;2023-03-17T00:38:05;13.70;;;13.00;;
1460;SDS011;724;49.910;12.530;2023-03-17T00:40:36;13.90;;;13.20;;
1460;SDS011;724;49.910;12.530;2023-03-17T00:43:02;13.45;;;12.75;;
1460;SDS011;724;49.910;12.530;2023-03-17T00:45:30;13.60;;;12.90;;
1460;SDS011;724;49.910;12.530;2023-03-17T00:47:57;13.60;;;12.90;;
1460;SDS011;724;49.910;12.530;2023-03-17T00:50:25;13.60;;;12.90;;
1460;SDS011;724;49.910;12.530;2023-03-17T00:52:53;13.73;;;13.02;;
1460;SDS011;724;49.910;12.530;2023-03-17T00:55:22;13.70;;;13.00;;
1460;SDS011;724;49.910;12.530;2023-03-17T00:57:50;14.02;;;13.32;;
1460;SDS011;724;49.910;12.530;2023-03-17T01:00:19;13.70;;;13.00;;
1460;SDS011;724;49.910;12.530;2023-03-17T01:02:50;14.00;;;13.30;;
1460;SDS011;724;49.910;12.530;2023-03-17T01:05:18;14.00;;;13.30;;
1460;SDS011;724;49.910;12.530;2023-03-17T01:07:46;13.70;;;13.00;;
1460;SDS011;724;49.910;12.530;2023-03-17T01:10:17;13.70;;;13.00;;
1460;SDS011;724;49.910;12.530;2023-03-17T01:12:46;13.90;;;13.20;;
1460;SDS011;724;49.910;12.530;2023-03-17T01:15:13;13.68;;;12.98;;
1460;SDS011;724;49.910;12.530;2023-03-17T01:17:41;13.80;;;13.10;;
1460;SDS011;724;49.910;12.530;2023-03-17T01:20:12;13.77;;;13.07;;
1460;SDS011;724;49.910;12.530;2023-03-17T01:22:42;13.50;;;12.80;;
1460;SDS011;724;49.910;12.530;2023-03-17T01:25:09;13.75;;;13.05;;
1460;SDS011;724;49.910;12.530;2023-03-17T01:27:37;13.70;;;13.00;;
1460;SDS011;724;49.910;12.530;2023-03-17T01:30:05;13.43;;;12.73;;
1460;SDS011;724;49.910;12.530;2023-03-17T01:32:33;14.10;;;13.40;;
1460;SDS011;724;49.910;12.530;2023-03-17T01:35:00;13.90;;;13.20;;
1460;SDS011;724;49.910;12.530;2023-03-17T01:37:30;13.27;;;12.57;;
1460;SDS011;724;49.910;12.530;2023-03-17T01:39:57;13.90;;;13.20;;
1460;SDS011;724;49.910;12.530;2023-03-17T01:42:23;13.80;;;13.10;;
1460;SDS011;724;49.910;12.530;2023-03-17T01:44:57;14.00;;;13.30;;
1460;SDS011;724;49.910;12.530;2023-03-17T01:47:25;14.00;;;13.30;;
1460;SDS011;724;49.910;12.530;2023-03-17T01:49:54;13.20;;;12.50;;
1460;SDS011;724;49.910;12.530;2023-03-17T01:52:22;13.60;;;12.90;;
1460;SDS011;724;49.910;12.530;2023-03-17T01:54:52;13.95;;;13.25;;
1460;SDS011;724;49.910;12.530;2023-03-17T01:57:22;13.70;;;13.00;;
1460;SDS011;724;49.910;12.530;2023-03-17T01:59:53;13.68;;;12.98;;
1460;SDS011;724;49.910;12.530;2023-03-17T02:02:25;13.70;;;13.00;;
1460;SDS011;724;49.910;12.530;2023-03-17T02:04:55;13.75;;;13.05;;
1460;SDS011;724;49.910;12.530;2023-03-17T02:07:23;13.70;;;13.00;;
1460;SDS011;724;49.910;12.530;2023-03-17T02:09:53;13.60;;;12.90;;
1460;SDS011;724;49.910;12.530;2023-03-17T02:12:22;13.95;;;13.25;;
1460;SDS011;724;49.910;12.530;2023-03-17T02:14:50;13.90;;;13.20;;
1460;SDS011;724;49.910;12.530;2023-03-17T02:17:17;14.00;;;13.30;;
1460;SDS011;724;49.910;12.530;2023-03-17T02:19:44;13.30;;;12.60;;
1460;SDS011;724;49.910;12.530;2023-03-17T02:22:12;14.05;;;13.35;;
1460;SDS011;724;49.910;12.530;2023-03-17T02:24:39;13.50;;;12.80;;
1460;SDS011;724;49.910;12.530;2023-03-17T02:27:10;13.48;;;12.77;;
1460;SDS011;724;49.910;12.530;2023-03-17T02:29:39;14.00;;;13.30;;
1460;SDS011;724;49.910;12.530;2023-03-17T02:32:06;13.70;;;13.00;;
1460;SDS011;724;49.910;12.530;2023-03-17T02:34:33;13.45;;;12.75;;
1460;SDS011;724;49.910;12.530;2023-03-17T02:37:01;13.70;;;13.00;;
1460;SDS011;724;49.910;12.530;2023-03-17T02:39:29;13.30;;;12.60;;
1460;SDS011;724;49.910;12.530;2023-03-17T02:41:56;13.80;;;13.10;;
1460;SDS011;724;49.910;12.530;2023-03-17T02:44:23;13.88;;;13.18;;
1460;SDS011;724;49.910;12.530;2023-03-17T02:46:51;13.27;;;12.57;;
1460;SDS011;724;49.910;12.530;2023-03-17T02:49:17;13.80;;;13.10;;
1460;SDS011;724;49.910;12.530;2023-03-17T02:51:45;13.90;;;13.20;;
1460;SDS011;724;49.910;12.530;2023-03-17T02:54:12;13.40;;;12.70;;
1460;SDS011;724;49.910;12.530;2023-03-17T02:56:40;13.40;;;12.70;;
1460;SDS011;724;49.910;12.530;2023-03-17T02:59:07;13.38;;;12.68;;
1460;SDS011;724;49.910;12.530;2023-03-17T03:01:34;13.55;;;12.85;;
1460;SDS011;724;49.910;12.530;2023-03-17T03:04:02;13.20;;;12.50;;
1460;SDS011;724;49.910;12.530;2023-03-17T03:06:29;13.52;;;12.82;;
1460;SDS011;724;49.910;12.530;2023-03-17T03:08:56;13.20;;;12.50;;
1460;SDS011;724;49.910;12.530;2023-03-17T03:11:23;13.43;;;12.73;;
1460;SDS011;724;49.910;12.530;2023-03-17T03:13:52;14.00;;;13.30;;
1460;SDS011;724;49.910;12.530;2023-03-17T03:16:18;13.90;;;13.20;;
1460;SDS011;724;49.910;12.530;2023-03-17T03:18:45;13.73;;;13.02;;
1460;SDS011;724;49.910;12.530;2023-03-17T03:21:12;13.80;;;13.10;;
1460;SDS011;724;49.910;12.530;2023-03-17T03:23:39;13.50;;;12.80;;
1460;SDS011;724;49.910;12.530;2023-03-17T03:26:07;13.10;;;12.40;;
1460;SDS011;724;49.910;12.530;2023-03-17T03:28:34;13.32;;;12.63;;
1460;SDS011;724;49.910;12.530;2023-03-17T03:31:02;13.20;;;12.50;;
1460;SDS011;724;49.910;12.530;2023-03-17T03:33:29;14.02;;;13.32;;
1460;SDS011;724;49.910;12.530;2023-03-17T03:35:57;14.30;;;13.60;;
1460;SDS011;724;49.910;12.530;2023-03-17T03:38:25;14.00;;;13.30;;
1460;SDS011;724;49.910;12.530;2023-03-17T03:40:52;13.60;;;12.90;;
1460;SDS011;724;49.910;12.530;2023-03-17T03:43:19;14.02;;;13.32;;
1460;SDS011;724;49.910;12.530;2023-03-17T03:45:46;14.30;;;13.60;;
1460;SDS011;724;49.910;12.530;2023-03-17T03:48:14;14.10;;;13.40;;
1460;SDS011;724;49.910;12.530;2023-03-17T03:50:41;14.10;;;13.40;;
1460;SDS011;724;49.910;12.530;2023-03-17T03:53:08;14.27;;;13.57;;
1460;SDS011;724;49.910;12.530;2023-03-17T03:55:35;14.43;;;13.73;;
1460;SDS011;724;49.910;12.530;2023-03-17T03:58:02;14.40;;;13.70;;
1460;SDS011;724;49.910;12.530;2023-03-17T04:00:29;15.02;;;14.23;;
1460;SDS011;724;49.910;12.530;2023-03-17T04:02:56;14.55;;;13.85;;
1460;SDS011;724;49.910;12.530;2023-03-17T04:05:25;14.32;;;13.63;;
1460;SDS011;724;49.910;12.530;2023-03-17T04:07:51;14.20;;;13.50;;
1460;SDS011;724;49.910;12.530;2023-03-17T04:10:18;13.80;;;13.10;;
1460;SDS011;724;49.910;12.530;2023-03-17T04:12:45;14.40;;;13.70;;
1460;SDS011;724;49.910;12.530;2023-03-17T04:15:13;14.60;;;13.90;;
1460;SDS011;724;49.910;12.530;2023-03-17T04:17:40;14.90;;;14.10;;
1460;SDS011;724;49.910;12.530;2023-03-17T04:20:09;14.50;;;13.80;;
1460;SDS011;724;49.910;12.530;2023-03-17T04:22:39;14.20;;;13.50;;
1460;SDS011;724;49.910;12.530;2023-03-17T04:25:07;14.10;;;13.40;;
1460;SDS011;724;49.910;12.530;2023-03-17T04:27:35;14.48;;;13.77;;
1460;SDS011;724;49.910;12.530;2023-03-17T04:30:02;14.10;;;13.40;;
1460;SDS011;724;49.910;12.530;2023-03-17T04:32:31;14.10;;;13.40;;
1460;SDS011;724;49.910;12.530;2023-03-17T04:34:58;14.10;;;13.40;;
1460;SDS011;724;49.910;12.530;2023-03-17T04:37:24;14.38;;;13.68;;
1460;SDS011;724;49.910;12.530;2023-03-17T04:39:52;14.80;;;14.00;;
1460;SDS011;724;49.910;12.530;2023-03-17T04:42:20;14.93;;;14.13;;
1460;SDS011;724;49.910;12.530;2023-03-17T04:44:47;15.00;;;14.20;;
1460;SDS011;724;49.910;12.530;2023-03-17T04:47:13;14.93;;;14.13;;
1460;SDS011;724;49.910;12.530;2023-03-17T04:49:40;14.93;;;14.13;;
1460;SDS011;724;49.910;12.530;2023-03-17T04:52:07;14.40;;;13.70;;
1460;SDS011;724;49.910;12.530;2023-03-17T04:54:34;14.48;;;13.77;;
1460;SDS011;724;49.910;12.530;2023-03-17T04:57:03;14.10;;;13.40;;
1460;SDS011;724;49.910;12.530;2023-03-17T04:59:30;14.40;;;13.70;;
1460;SDS011;724;49.910;12.530;2023-03-17T05:01:56;14.30;;;13.60;;
1460;SDS011;724;49.910;12.530;2023-03-17T05:04:23;14.00;;;13.30;;
1460;SDS011;724;49.910;12.530;2023-03-17T05:06:50;13.85;;;13.15;;
1460;SDS011;724;49.910;12.530;2023-03-17T05:09:17;13.60;;;12.90;;
1460;SDS011;724;49.910;12.530;2023-03-17T05:11:43;13.35;;;12.65;;
1460;SDS011;724;49.910;12.530;2023-03-17T05:14:12;13.65;;;12.95;;
1460;SDS011;724;49.910;12.530;2023-03-17T05:16:39;13.40;;;12.70;;
1460;SDS011;724;49.910;12.530;2023-03-17T05:19:06;14.02;;;13.32;;
1460;SDS011;724;49.910;12.530;2023-03-17T05:21:33;13.55;;;12.85;;
1460;SDS011;724;49.910;12.530;2023-03-17T05:24:00;13.75;;;13.05;;
1460;SDS011;724;49.910;12.530;2023-03-17T05:26:26;13.32;;;12.63;;
1460;SDS011;724;49.910;12.530;2023-03-17T05:28:53;13.25;;;12.55;;
1460;SDS011;724;49.910;12.530;2023-03-17T05:31:21;13.10;;;12.40;;
1460;SDS011;724;49.910;12.530;2023-03-17T05:33:48;13.90;;;13.20;;
1460;SDS011;724;49.910;12.530;2023-03-17T05:36:15;13.50;;;12.80;;
1460;SDS011;724;49.910;12.530;2023-03-17T05:38:42;13.60;;;12.90;;
1460;SDS011;724;49.910;12.530;2023-03-17T05:41:09;14.25;;;13.55;;
1460;SDS011;724;49.910;12.530;2023-03-17T05:43:36;14.30;;;13.60;;
1460;SDS011;724;49.910;12.530;2023-03-17T05:46:03;14.30;;;13.60;;
1460;SDS011;724;49.910;12.530;2023-03-17T05:48:32;14.05;;;13.35;;
1460;SDS011;724;49.910;12.530;2023-03-17T05:50:58;14.35;;;13.65;;
1460;SDS011;724;49.910;12.530;2023-03-17T05:53:25;14.50;;;13.80;;
1460;SDS011;724;49.910;12.530;2023-03-17T05:55:52;14.88;;;14.07;;
1460;SDS011;724;49.910;12.530;2023-03-17T05:58:19;14.40;;;13.70;;
1460;SDS011;724;49.910;12.530;2023-03-17T06:00:46;14.80;;;14.00;;
1460;SDS011;724;49.910;12.530;2023-03-17T06:03:13;14.95;;;14.15;;
1460;SDS011;724;49.910;12.530;2023-03-17T06:05:41;14.60;;;13.90;;
1460;SDS011;724;49.910;12.530;2023-03-17T06:08:08;14.93;;;14.13;;
1460;SDS011;724;49.910;12.530;2023-03-17T06:10:35;14.63;;;13.90;;
1460;SDS011;724;49.910;12.530;2023-03-17T06:13:02;14.95;;;14.15;;
1460;SDS011;724;49.910;12.530;2023-03-17T06:15:29;14.80;;;14.00;;
1460;SDS011;724;49.910;12.530;2023-03-17T06:17:57;14.60;;;13.90;;
1460;SDS011;724;49.910;12.530;2023-03-17T06:20:24;15.00;;;14.20;;
1460;SDS011;724;49.910;12.530;2023-03-17T06:22:52;14.40;;;13.70;;
1460;SDS011;724;49.910;12.530;2023-03-17T06:25:19;14.60;;;13.90;;
1460;SDS011;724;49.910;12.530;2023-03-17T06:27:46;14.60;;;13.90;;
1460;SDS011;724;49.910;12.530;2023-03-17T06:30:17;15.07;;;14.27;;
1460;SDS011;724;49.910;12.530;2023-03-17T06:32:44;15.13;;;14.32;;
1460;SDS011;724;49.910;12.530;2023-03-17T06:35:11;14.95;;;14.15;;
1460;SDS011;724;49.910;12.530;2023-03-17T06:37:38;14.95;;;14.15;;
1460;SDS011;724;49.910;12.530;2023-03-17T06:40:08;15.30;;;14.50;;
1460;SDS011;724;49.910;12.530;2023-03-17T06:42:35;15.20;;;14.40;;
1460;SDS011;724;49.910;12.530;2023-03-17T06:45:02;15.40;;;14.60;;
1460;SDS011;724;49.910;12.530;2023-03-17T06:47:29;15.20;;;14.40;;
1460;SDS011;724;49.910;12.530;2023-03-17T06:49:56;15.93;;;15.13;;
1460;SDS011;724;49.910;12.530;2023-03-17T06:52:22;16.10;;;15.30;;
1460;SDS011;724;49.910;12.530;2023-03-17T06:54:49;16.23;;;15.43;;
1460;SDS011;724;49.910;12.530;2023-03-17T06:57:17;16.05;;;15.25;;
1460;SDS011;724;49.910;12.530;2023-03-17T06:59:44;16.60;;;15.80;;
1460;SDS011;724;49.910;12.530;2023-03-17T07:02:11;16.30;;;15.50;;
1460;SDS011;724;49.910;12.530;2023-03-17T07:04:38;15.80;;;15.00;;
1460;SDS011;724;49.910;12.530;2023-03-17T07:07:05;15.90;;;15.10;;
1460;SDS011;724;49.910;12.530;2023-03-17T07:09:32;15.90;;;15.10;;
1460;SDS011;724;49.910;12.530;2023-03-17T07:12:00;16.30;;;15.50;;
1460;SDS011;724;49.910;12.530;2023-03-17T07:14:31;16.48;;;15.68;;
1460;SDS011;724;49.910;12.530;2023-03-17T07:16:59;16.42;;;15.63;;
1460;SDS011;724;49.910;12.530;2023-03-17T07:19:27;17.10;;;16.20;;
1460;SDS011;724;49.910;12.530;2023-03-17T07:21:54;17.20;;;16.30;;
1460;SDS011;724;49.910;12.530;2023-03-17T07:24:21;17.33;;;16.42;;
1460;SDS011;724;49.910;12.530;2023-03-17T07:26:48;17.48;;;16.58;;
1460;SDS011;724;49.910;12.530;2023-03-17T07:29:15;17.30;;;16.40;;
1460;SDS011;724;49.910;12.530;2023-03-17T07:31:43;17.20;;;16.30;;
1460;SDS011;724;49.910;12.530;2023-03-17T07:34:11;17.30;;;16.40;;
1460;SDS011;724;49.910;12.530;2023-03-17T07:36:38;17.05;;;16.15;;
1460;SDS011;724;49.910;12.530;2023-03-17T07:39:05;16.90;;;16.00;;
1460;SDS011;724;49.910;12.530;2023-03-17T07:41:32;17.45;;;16.55;;
1460;SDS011;724;49.910;12.530;2023-03-17T07:44:00;17.10;;;16.20;;
1460;SDS011;724;49.910;12.530;2023-03-17T07:46:27;17.30;;;16.40;;
1460;SDS011;724;49.910;12.530;2023-03-17T07:48:56;17.10;;;16.20;;
1460;SDS011;724;49.910;12.530;2023-03-17T07:51:23;17.40;;;16.50;;
1460;SDS011;724;49.910;12.530;2023-03-17T07:53:52;17.40;;;16.50;;
1460;SDS011;724;49.910;12.530;2023-03-17T07:56:19;17.20;;;16.30;;
1460;SDS011;724;49.910;12.530;2023-03-17T07:58:46;17.10;;;16.20;;
1460;SDS011;724;49.910;12.530;2023-03-17T08:01:13;16.60;;;15.80;;
1460;SDS011;724;49.910;12.530;2023-03-17T08:03:40;15.30;;;14.50;;
1460;SDS011;724;49.910;12.530;2023-03-17T08:06:08;16.50;;;15.70;;
1460;SDS011;724;49.910;12.530;2023-03-17T08:08:35;16.40;;;15.60;;
1460;SDS011;724;49.910;12.530;2023-03-17T08:11:03;16.30;;;15.50;;
1460;SDS011;724;49.910;12.530;2023-03-17T08:13:30;16.85;;;15.98;;
1460;SDS011;724;49.910;12.530;2023-03-17T08:15:57;16.70;;;15.90;;
1460;SDS011;724;49.910;12.530;2023-03-17T08:18:24;16.58;;;15.77;;
1460;SDS011;724;49.910;12.530;2023-03-17T08:20:52;16.48;;;15.68;;
1460;SDS011;724;49.910;12.530;2023-03-17T08:23:22;17.30;;;16.40;;
1460;SDS011;724;49.910;12.530;2023-03-17T08:25:49;16.60;;;15.80;;
1460;SDS011;724;49.910;12.530;2023-03-17T08:28:21;16.48;;;15.68;;
1460;SDS011;724;49.910;12.530;2023-03-17T08:30:47;16.50;;;15.70;;
1460;SDS011;724;49.910;12.530;2023-03-17T08:33:14;16.30;;;15.50;;
1460;SDS011;724;49.910;12.530;2023-03-17T08:35:41;16.35;;;15.55;;
1460;SDS011;724;49.910;12.530;2023-03-17T08:38:08;16.10;;;15.30;;
1460;SDS011;724;49.910;12.530;2023-03-17T08:40:37;16.60;;;15.80;;
1460;SDS011;724;49.910;12.530;2023-03-17T08:43:04;17.40;;;16.50;;
1460;SDS011;724;49.910;12.530;2023-03-17T08:45:31;17.15;;;16.25;;
1460;SDS011;724;49.910;12.530;2023-03-17T08:47:58;16.92;;;16.02;;
1460;SDS011;724;49.910;12.530;2023-03-17T08:50:25;17.27;;;16.38;;
1460;SDS011;724;49.910;12.530;2023-03-17T08:52:53;17.10;;;16.20;;
1460;SDS011;724;49.910;12.530;2023-03-17T08:55:20;17.35;;;16.45;;
1460;SDS011;724;49.910;12.530;2023-03-17T08:57:48;17.05;;;16.15;;
1460;SDS011;724;49.910;12.530;2023-03-17T09:00:16;17.40;;;16.50;;
1460;SDS011;724;49.910;12.530;2023-03-17T09:02:44;17.10;;;16.20;;
1460;SDS011;724;49.910;12.530;2023-03-17T09:05:13;16.75;;;15.93;;
1460;SDS011;724;49.910;12.530;2023-03-17T09:07:42;17.10;;;16.20;;
1460;SDS011;724;49.910;12.530;2023-03-17T09:10:09;17.10;;;16.20;;
1460;SDS011;724;49.910;12.530;2023-03-17T09:12:37;17.15;;;16.25;;
1460;SDS011;724;49.910;12.530;2023-03-17T09:15:06;17.40;;;16.50;;
1460;SDS011;724;49.910;12.530;2023-03-17T09:17:35;17.00;;;16.10;;
1460;SDS011;724;49.910;12.530;2023-03-17T09:20:02;17.40;;;16.50;;
1460;SDS011;724;49.910;12.530;2023-03-17T09:22:30;17.27;;;16.38;;
1460;SDS011;724;49.910;12.530;2023-03-17T09:24:57;17.30;;;16.40;;
1460;SDS011;724;49.910;12.530;2023-03-17T09:27:24;17.40;;;16.50;;
1460;SDS011;724;49.910;12.530;2023-03-17T09:29:51;17.10;;;16.20;;
1460;SDS011;724;49.910;12.530;2023-03-17T09:32:19;17.60;;;16.70;;
1460;SDS011;724;49.910;12.530;2023-03-17T09:34:49;17.20;;;16.30;;
1460;SDS011;724;49.910;12.530;2023-03-17T09:37:16;17.40;;;16.50;;
1460;SDS011;724;49.910;12.530;2023-03-17T09:39:43;17.20;;;16.30;;
1460;SDS011;724;49.910;12.530;2023-03-17T09:42:16;17.27;;;16.37;;
1460;SDS011;724;49.910;12.530;2023-03-17T09:45:01;17.43;;;16.53;;
1460;SDS011;724;49.910;12.530;2023-03-17T09:47:50;17.40;;;16.50;;
1460;SDS011;724;49.910;12.530;2023-03-17T09:50:26;17.30;;;16.40;;
1460;SDS011;724;49.910;12.530;2023-03-17T09:52:57;17.30;;;16.40;;
1460;SDS011;724;49.910;12.530;2023-03-17T09:55:26;17.10;;;16.20;;
1460;SDS011;724;49.910;12.530;2023-03-17T09:57:54;17.40;;;16.50;;
1460;SDS011;724;49.910;12.530;2023-03-17T10:00:23;17.30;;;16.40;;
1460;SDS011;724;49.910;12.530;2023-03-17T10:02:54;17.50;;;16.60;;
1460;SDS011;724;49.910;12.530;2023-03-17T10:05:22;17.20;;;16.30;;
1460;SDS011;724;49.910;12.530;2023-03-17T10:07:53;17.30;;;16.40;;
1460;SDS011;724;49.910;12.530;2023-03-17T10:10:28;17.40;;;16.50;;
1460;SDS011;724;49.910;12.530;2023-03-17T10:13:05;17.30;;;16.40;;
1460;SDS011;724;49.910;12.530;2023-03-17T10:15:39;17.97;;;17.07;;
1460;SDS011;724;49.910;12.530;2023-03-17T10:18:14;17.93;;;17.03;;
1460;SDS011;724;49.910;12.530;2023-03-17T10:20:45;17.50;;;16.60;;
1460;SDS011;724;49.910;12.530;2023-03-17T10:23:16;17.60;;;16.70;;
1460;SDS011;724;49.910;12.530;2023-03-17T10:25:45;17.60;;;16.70;;
1460;SDS011;724;49.910;12.530;2023-03-17T10:28:17;17.50;;;16.60;;
1460;SDS011;724;49.910;12.530;2023-03-17T10:30:51;17.30;;;16.40;;
1460;SDS011;724;49.910;12.530;2023-03-17T10:33:19;17.40;;;16.50;;
1460;SDS011;724;49.910;12.530;2023-03-17T10:35:47;17.50;;;16.60;;
1460;SDS011;724;49.910;12.530;2023-03-17T10:38:14;17.30;;;16.40;;
1460;SDS011;724;49.910;12.530;2023-03-17T10:40:43;17.27;;;16.37;;
1460;SDS011;724;49.910;12.530;2023-03-17T10:43:15;17.40;;;16.50;;
1460;SDS011;724;49.910;12.530;2023-03-17T10:45:53;17.30;;;16.40;;
1460;SDS011;724;49.910;12.530;2023-03-17T10:48:25;17.30;;;16.40;;
1460;SDS011;724;49.910;12.530;2023-03-17T10:50:54;17.60;;;16.70;;
1460;SDS011;724;49.910;12.530;2023-03-17T10:53:24;17.60;;;16.70;;
1460;SDS011;724;49.910;12.530;2023-03-17T10:55:53;18.00;;;17.10;;
1460;SDS011;724;49.910;12.530;2023-03-17T10:58:34;17.70;;;16.80;;
1460;SDS011;724;49.910;12.530;2023-03-17T11:01:05;17.80;;;16.90;;
1460;SDS011;724;49.910;12.530;2023-03-17T11:03:36;17.50;;;16.60;;
1460;SDS011;724;49.910;12.530;2023-03-17T11:06:05;17.73;;;16.83;;
1460;SDS011;724;49.910;12.530;2023-03-17T11:08:34;17.70;;;16.80;;
1460;SDS011;724;49.910;12.530;2023-03-17T11:11:04;17.37;;;16.47;;
1460;SDS011;724;49.910;12.530;2023-03-17T11:13:32;17.37;;;16.47;;
1460;SDS011;724;49.910;12.530;2023-03-17T11:16:04;17.13;;;16.23;;
1460;SDS011;724;49.910;12.530;2023-03-17T11:18:36;17.30;;;16.40;;
1460;SDS011;724;49.910;12.530;2023-03-17T11:21:07;17.20;;;16.30;;
1460;SDS011;724;49.910;12.530;2023-03-17T11:23:51;17.30;;;16.40;;
1460;SDS011;724;49.910;12.530;2023-03-17T11:26:30;17.00;;;16.10;;
1460;SDS011;724;49.910;12.530;2023-03-17T11:29:19;16.50;;;15.70;;
1460;SDS011;724;49.910;12.530;2023-03-17T11:31:51;17.03;;;16.13;;
1460;SDS011;724;49.910;12.530;2023-03-17T11:34:29;17.03;;;16.13;;
1460;SDS011;724;49.910;12.530;2023-03-17T11:37:10;17.80;;;16.90;;
1460;SDS011;724;49.910;12.530;2023-03-17T11:39:49;18.00;;;17.10;;
1460;SDS011;724;49.910;12.530;2023-03-17T11:42:24;18.37;;;17.47;;
1460;SDS011;724;49.910;12.530;2023-03-17T11:44:59;18.07;;;17.17;;
1460;SDS011;724;49.910;12.530;2023-03-17T11:47:45;17.60;;;16.70;;
1460;SDS011;724;49.910;12.530;2023-03-17T11:50:42;17.70;;;16.80;;
1460;SDS011;724;49.910;12.530;2023-03-17T11:53:19;17.85;;;16.95;;
1460;SDS011;724;49.910;12.530;2023-03-17T11:55:57;17.70;;;16.80;;
1460;SDS011;724;49.910;12.530;2023-03-17T11:58:30;17.30;;;16.40;;
1460;SDS011;724;49.910;12.530;2023-03-17T12:01:01;17.20;;;16.30;;
1460;SDS011;724;49.910;12.530;2023-03-17T12:03:34;17.70;;;16.80;;
1460;SDS011;724;49.910;12.530;2023-03-17T12:06:11;17.40;;;16.50;;
1460;SDS011;724;49.910;12.530;2023-03-17T12:08:45;17.20;;;16.30;;
1460;SDS011;724;49.910;12.530;2023-03-17T12:11:18;17.25;;;16.35;;
1460;SDS011;724;49.910;12.530;2023-03-17T12:13:50;17.00;;;16.10;;
1460;SDS011;724;49.910;12.530;2023-03-17T12:16:25;17.30;;;16.40;;
1460;SDS011;724;49.910;12.530;2023-03-17T12:18:59;16.90;;;16.00;;
1460;SDS011;724;49.910;12.530;2023-03-17T12:21:34;17.00;;;16.10;;
1460;SDS011;724;49.910;12.530;2023-03-17T12:24:09;17.42;;;16.52;;
1460;SDS011;724;49.910;12.530;2023-03-17T12:26:41;17.10;;;16.20;;
1460;SDS011;724;49.910;12.530;2023-03-17T12:29:18;17.30;;;16.40;;
1460;SDS011;724;49.910;12.530;2023-03-17T12:31:54;17.10;;;16.20;;
1460;SDS011;724;49.910;12.530;2023-03-17T12:34:27;16.70;;;15.90;;
1460;SDS011;724;49.910;12.530;2023-03-17T12:37:03;16.20;;;15.40;;
1460;SDS011;724;49.910;12.530;2023-03-17T12:39:31;16.90;;;16.00;;
1460;SDS011;724;49.910;12.530;2023-03-17T12:42:04;16.50;;;15.70;;
1460;SDS011;724;49.910;12.530;2023-03-17T12:44:52;16.00;;;15.20;;
1460;SDS011;724;49.910;12.530;2023-03-17T12:47:43;16.40;;;15.60;;
1460;SDS011;724;49.910;12.530;2023-03-17T12:50:35;16.95;;;16.05;;
1460;SDS011;724;49.910;12.530;2023-03-17T12:53:22;17.10;;;16.20;;
1460;SDS011;724;49.910;12.530;2023-03-17T12:55:54;16.98;;;16.08;;
1460;SDS011;724;49.910;12.530;2023-03-17T12:58:25;17.20;;;16.30;;
1460;SDS011;724;49.910;12.530;2023-03-17T13:01:00;17.48;;;16.58;;
1460;SDS011;724;49.910;12.530;2023-03-17T13:03:44;17.00;;;16.10;;
1460;SDS011;724;49.910;12.530;2023-03-17T13:06:21;17.00;;;16.10;;
1460;SDS011;724;49.910;12.530;2023-03-17T13:08:52;17.08;;;16.17;;
1460;SDS011;724;49.910;12.530;2023-03-17T13:11:25;17.00;;;16.10;;
1460;SDS011;724;49.910;12.530;2023-03-17T13:14:12;16.90;;;16.00;;
1460;SDS011;724;49.910;12.530;2023-03-17T13:16:48;17.20;;;16.30;;
1460;SDS011;724;49.910;12.530;2023-03-17T13:19:16;17.40;;;16.50;;
1460;SDS011;724;49.910;12.530;2023-03-17T13:21:50;17.40;;;16.50;;
1460;SDS011;724;49.910;12.530;2023-03-17T13:24:41;16.90;;;16.00;;
1460;SDS011;724;49.910;12.530;2023-03-17T13:27:12;16.50;;;15.70;;
1460;SDS011;724;49.910;12.530;2023-03-17T13:29:44;16.55;;;15.75;;
1460;SDS011;724;49.910;12.530;2023-03-17T13:35:20;16.50;;;15.70;;
1460;SDS011;724;49.910;12.530;2023-03-17T13:38:25;16.95;;;16.05;;
1460;SDS011;724;49.910;12.530;2023-03-17T13:44:14;16.90;;;16.00;;
1460;SDS011;724;49.910;12.530;2023-03-17T13:46:56;17.10;;;16.20;;
1460;SDS011;724;49.910;12.530;2023-03-17T13:49:39;17.38;;;16.48;;
1460;SDS011;724;49.910;12.530;2023-03-17T13:52:14;17.30;;;16.40;;
1460;SDS011;724;49.910;12.530;2023-03-17T13:54:46;17.10;;;16.20;;
1460;SDS011;724;49.910;12.530;2023-03-17T13:57:21;17.00;;;16.10;;
1460;SDS011;724;49.910;12.530;2023-03-17T14:02:46;17.10;;;16.20;;
1460;SDS011;724;49.910;12.530;2023-03-17T14:05:18;17.50;;;16.60;;
1460;SDS011;724;49.910;12.530;2023-03-17T14:07:51;17.58;;;16.67;;
1460;SDS011;724;49.910;12.530;2023-03-17T14:10:24;17.15;;;16.25;;
1460;SDS011;724;49.910;12.530;2023-03-17T14:12:55;16.70;;;15.90;;
1460;SDS011;724;49.910;12.530;2023-03-17T14:15:27;16.58;;;15.77;;
1460;SDS011;724;49.910;12.530;2023-03-17T14:18:00;16.60;;;15.80;;
1460;SDS011;724;49.910;12.530;2023-03-17T14:20:30;16.40;;;15.60;;
1460;SDS011;724;49.910;12.530;2023-03-17T14:22:58;16.40;;;15.60;;
1460;SDS011;724;49.910;12.530;2023-03-17T14:25:29;16.70;;;15.90;;
1460;SDS011;724;49.910;12.530;2023-03-17T14:27:58;17.00;;;16.10;;
1460;SDS011;724;49.910;12.530;2023-03-17T14:30:30;17.00;;;16.10;;
1460;SDS011;724;49.910;12.530;2023-03-17T14:33:00;16.75;;;15.93;;
1460;SDS011;724;49.910;12.530;2023-03-17T14:35:30;16.98;;;16.08;;
1460;SDS011;724;49.910;12.530;2023-03-17T14:38:01;16.90;;;16.00;;
1460;SDS011;724;49.910;12.530;2023-03-17T14:40:29;16.70;;;15.90;;
1460;SDS011;724;49.910;12.530;2023-03-17T14:43:00;17.20;;;16.30;;
1460;SDS011;724;49.910;12.530;2023-03-17T14:45:30;17.02;;;16.13;;
1460;SDS011;724;49.910;12.530;2023-03-17T14:48:12;17.05;;;16.15;;
1460;SDS011;724;49.910;12.530;2023-03-17T14:50:48;16.98;;;16.08;;
1460;SDS011;724;49.910;12.530;2023-03-17T14:53:18;17.10;;;16.20;;
1460;SDS011;724;49.910;12.530;2023-03-17T14:55:47;16.90;;;16.00;;
1460;SDS011;724;49.910;12.530;2023-03-17T14:58:17;17.10;;;16.20;;
1460;SDS011;724;49.910;12.530;2023-03-17T15:00:53;17.00;;;16.10;;
1460;SDS011;724;49.910;12.530;2023-03-17T15:03:22;17.20;;;16.30;;
1460;SDS011;724;49.910;12.530;2023-03-17T15:06:01;17.20;;;16.30;;
1460;SDS011;724;49.910;12.530;2023-03-17T15:08:42;17.30;;;16.40;;
1460;SDS011;724;49.910;12.530;2023-03-17T15:11:15;17.55;;;16.65;;
1460;SDS011;724;49.910;12.530;2023-03-17T15:13:54;17.40;;;16.50;;